sensor_id;sensor_type;location;lat;lon;timestamp;pressure;altitude;pressure_sealevel;temperature;humidity
34297;BME280;20564;42.902;25.336;2024-01-15T00:01:30;96713.44;;;-7.20;100.00
34297;BME280;20564;42.902;25.336;2024-01-15T00:03:58;96717.91;;;-7.27;100.00
34297;BME280;20564;42.902;25.336;2024-01-15T00:06:26;96719.75;;;-7.32;100.00
34297;BME280;20564;42.902;25.336;2024-01-15T00:08:55;96713.81;;;-7.33;100.00
34297;BME280;20564;42.902;25.336;2024-01-15T00:11:22;96706.31;;;-7.39;100.00
34297;BME280;20564;42.902;25.336;2024-01-15T00:13:49;96704.69;;;-7.41;100.00
34297;BME280;20564;42.902;25.336;2024-01-15T00:16:16;96709.06;;;-7.45;100.00
34297;BME280;20564;42.902;25.336;2024-01-15T00:18:43;96714.09;;;-7.43;100.00
34297;BME280;20564;42.902;25.336;2024-01-15T00:21:11;96709.72;;;-7.38;100.00
34297;BME280;20564;42.902;25.336;2024-01-15T00:23:42;96724.31;;;-7.42;100.00
34297;BME280;20564;42.902;25.336;2024-01-15T00:26:11;96716.75;;;-7.46;100.00
34297;BME280;20564;42.902;25.336;2024-01-15T00:28:38;96715.75;;;-7.41;100.00
34297;BME280;20564;42.902;25.336;2024-01-15T00:31:05;96713.41;;;-7.48;100.00
34297;BME280;20564;42.902;25.336;2024-01-15T00:33:33;96716.00;;;-7.50;100.00
34297;BME280;20564;42.902;25.336;2024-01-15T00:36:00;96699.88;;;-7.52;100.00
34297;BME280;20564;42.902;25.336;2024-01-15T00:38:27;96699.06;;;-7.54;100.00
34297;BME280;20564;42.902;25.336;2024-01-15T00:40:54;96683.88;;;-7.59;100.00
34297;BME280;20564;42.902;25.336;2024-01-15T00:43:21;96696.72;;;-7.62;100.00
34297;BME280;20564;42.902;25.336;2024-01-15T00:48:26;96690.03;;;-7.66;100.00
34297;BME280;20564;42.902;25.336;2024-01-15T00:50:54;96694.16;;;-7.60;100.00
34297;BME280;20564;42.902;25.336;2024-01-15T00:53:21;96683.88;;;-7.59;100.00
34297;BME280;20564;42.902;25.336;2024-01-15T00:55:50;96681.31;;;-7.59;100.00
34297;BME280;20564;42.902;25.336;2024-01-15T00:58:18;96681.31;;;-7.59;100.00
34297;BME280;20564;42.902;25.336;2024-01-15T01:00:45;96673.59;;;-7.57;100.00
34297;BME280;20564;42.902;25.336;2024-01-15T01:03:13;96687.31;;;-7.60;100.00
34297;BME280;20564;42.902;25.336;2024-01-15T01:05:40;96678.81;;;-7.60;100.00
34297;BME280;20564;42.902;25.336;2024-01-15T01:08:07;96664.47;;;-7.66;100.00
34297;BME280;20564;42.902;25.336;2024-01-15T01:10:34;96677.34;;;-7.69;100.00
34297;BME280;20564;42.902;25.336;2024-01-15T01:13:02;96664.53;;;-7.67;100.00
34297;BME280;20564;42.902;25.336;2024-01-15T01:15:29;96666.16;;;-7.65;100.00
34297;BME280;20564;42.902;25.336;2024-01-15T01:17:56;96670.56;;;-7.70;100.00
34297;BME280;20564;42.902;25.336;2024-01-15T01:20:23;96666.91;;;-7.61;100.00
34297;BME280;20564;42.902;25.336;2024-01-15T01:22:50;96665.38;;;-7.67;100.00
34297;BME280;20564;42.902;25.336;2024-01-15T01:25:17;96658.63;;;-7.69;100.00
34297;BME280;20564;42.902;25.336;2024-01-15T01:27:44;96651.78;;;-7.69;100.00
34297;BME280;20564;42.902;25.336;2024-01-15T01:30:12;96660.19;;;-7.65;100.00
34297;BME280;20564;42.902;25.336;2024-01-15T01:32:39;96643.28;;;-7.69;100.00
34297;BME280;20564;42.902;25.336;2024-01-15T01:35:06;96640.78;;;-7.71;100.00
34297;BME280;20564;42.902;25.336;2024-01-15T01:37:33;96638.22;;;-7.71;100.00
34297;BME280;20564;42.902;25.336;2024-01-15T01:40:01;96634.88;;;-7.73;100.00
34297;BME280;20564;42.902;25.336;2024-01-15T01:42:28;96630.66;;;-7.74;100.00
34297;BME280;20564;42.902;25.336;2024-01-15T01:44:55;96637.56;;;-7.78;99.62
34297;BME280;20564;42.902;25.336;2024-01-15T01:47:23;96633.41;;;-7.82;100.00
34297;BME280;20564;42.902;25.336;2024-01-15T01:49:53;96622.38;;;-7.82;100.00
34297;BME280;20564;42.902;25.336;2024-01-15T01:52:21;96621.50;;;-7.83;100.00
34297;BME280;20564;42.902;25.336;2024-01-15T01:54:48;96623.22;;;-7.82;99.97
34297;BME280;20564;42.902;25.336;2024-01-15T01:57:16;96618.03;;;-7.80;100.00
34297;BME280;20564;42.902;25.336;2024-01-15T01:59:45;96603.75;;;-7.87;99.78
34297;BME280;20564;42.902;25.336;2024-01-15T02:02:14;96613.00;;;-7.83;100.00
34297;BME280;20564;42.902;25.336;2024-01-15T02:04:42;96594.47;;;-7.90;99.89
34297;BME280;20564;42.902;25.336;2024-01-15T02:07:11;96602.03;;;-7.85;100.00
34297;BME280;20564;42.902;25.336;2024-01-15T02:09:38;96595.41;;;-7.92;99.90
34297;BME280;20564;42.902;25.336;2024-01-15T02:12:06;96602.25;;;-7.94;99.51
34297;BME280;20564;42.902;25.336;2024-01-15T02:14:33;96605.69;;;-7.95;100.00
34297;BME280;20564;42.902;25.336;2024-01-15T02:17:01;96604.75;;;-7.91;99.82
34297;BME280;20564;42.902;25.336;2024-01-15T02:19:28;96604.13;;;-7.99;99.53
34297;BME280;20564;42.902;25.336;2024-01-15T02:21:55;96608.25;;;-7.95;99.25
34297;BME280;20564;42.902;25.336;2024-01-15T02:24:22;96598.13;;;-7.98;99.59
34297;BME280;20564;42.902;25.336;2024-01-15T02:26:50;96593.06;;;-8.00;100.00
34297;BME280;20564;42.902;25.336;2024-01-15T02:29:17;96587.97;;;-8.00;99.70
34297;BME280;20564;42.902;25.336;2024-01-15T02:31:44;96582.84;;;-8.00;99.63
34297;BME280;20564;42.902;25.336;2024-01-15T02:34:12;96579.50;;;-8.02;99.72
34297;BME280;20564;42.902;25.336;2024-01-15T02:36:40;96581.22;;;-8.03;99.50
34297;BME280;20564;42.902;25.336;2024-01-15T02:39:07;96577.84;;;-8.03;99.06
34297;BME280;20564;42.902;25.336;2024-01-15T02:41:35;96580.41;;;-8.05;99.18
34297;BME280;20564;42.902;25.336;2024-01-15T02:44:02;96585.56;;;-8.06;98.98
34297;BME280;20564;42.902;25.336;2024-01-15T02:46:29;96581.47;;;-8.12;98.69
34297;BME280;20564;42.902;25.336;2024-01-15T02:48:56;96583.94;;;-8.09;99.26
34297;BME280;20564;42.902;25.336;2024-01-15T02:51:23;96578.81;;;-8.07;99.00
34297;BME280;20564;42.902;25.336;2024-01-15T02:53:52;96584.75;;;-8.07;99.80
34297;BME280;20564;42.902;25.336;2024-01-15T02:56:18;96582.25;;;-8.10;100.00
34297;BME280;20564;42.902;25.336;2024-01-15T02:58:46;96577.03;;;-8.05;99.31
34297;BME280;20564;42.902;25.336;2024-01-15T03:01:13;96583.06;;;-8.08;98.22
34297;BME280;20564;42.902;25.336;2024-01-15T03:03:41;96585.72;;;-8.11;99.19
34297;BME280;20564;42.902;25.336;2024-01-15T03:06:08;96577.25;;;-8.13;99.01
34297;BME280;20564;42.902;25.336;2024-01-15T03:08:35;96573.91;;;-8.15;99.14
34297;BME280;20564;42.902;25.336;2024-01-15T03:11:03;96568.81;;;-8.15;99.13
34297;BME280;20564;42.902;25.336;2024-01-15T03:13:30;96568.81;;;-8.15;100.00
34297;BME280;20564;42.902;25.336;2024-01-15T03:15:57;96579.94;;;-8.17;100.00
34297;BME280;20564;42.902;25.336;2024-01-15T03:18:24;96578.16;;;-8.15;99.70
34297;BME280;20564;42.902;25.336;2024-01-15T03:20:52;96583.31;;;-8.17;99.72
34297;BME280;20564;42.902;25.336;2024-01-15T03:23:19;96572.31;;;-8.19;100.00
34297;BME280;20564;42.902;25.336;2024-01-15T03:25:46;96566.34;;;-8.19;100.00
34297;BME280;20564;42.902;25.336;2024-01-15T03:28:13;96555.22;;;-8.17;100.00
34297;BME280;20564;42.902;25.336;2024-01-15T03:30:40;96565.34;;;-8.14;100.00
34297;BME280;20564;42.902;25.336;2024-01-15T03:33:07;96554.25;;;-8.11;100.00
34297;BME280;20564;42.902;25.336;2024-01-15T03:35:34;96560.28;;;-8.15;99.57
34297;BME280;20564;42.902;25.336;2024-01-15T03:38:01;96562.88;;;-8.17;99.89
34297;BME280;20564;42.902;25.336;2024-01-15T03:40:28;96567.22;;;-8.19;99.54
34297;BME280;20564;42.902;25.336;2024-01-15T03:42:56;96563.59;;;-8.12;99.81
34297;BME280;20564;42.902;25.336;2024-01-15T03:45:23;96559.38;;;-8.13;99.01
34297;BME280;20564;42.902;25.336;2024-01-15T03:47:50;96556.91;;;-8.16;99.59
34297;BME280;20564;42.902;25.336;2024-01-15T03:50:18;96551.84;;;-8.17;99.47
34297;BME280;20564;42.902;25.336;2024-01-15T03:52:45;96555.31;;;-8.20;99.65
34297;BME280;20564;42.902;25.336;2024-01-15T03:55:12;96551.97;;;-8.22;100.00
34297;BME280;20564;42.902;25.336;2024-01-15T03:57:39;96554.47;;;-8.20;100.00
34297;BME280;20564;42.902;25.336;2024-01-15T04:00:07;96546.88;;;-8.22;100.00
34297;BME280;20564;42.902;25.336;2024-01-15T04:02:34;96549.38;;;-8.20;100.00
34297;BME280;20564;42.902;25.336;2024-01-15T04:05:02;96548.25;;;-8.12;100.00
34297;BME280;20564;42.902;25.336;2024-01-15T04:07:29;96549.13;;;-8.11;99.60
34297;BME280;20564;42.902;25.336;2024-01-15T04:09:56;96558.59;;;-8.15;100.00
34297;BME280;20564;42.902;25.336;2024-01-15T04:12:23;96555.16;;;-8.14;100.00
34297;BME280;20564;42.902;25.336;2024-01-15T04:14:51;96551.91;;;-8.19;100.00
34297;BME280;20564;42.902;25.336;2024-01-15T04:17:18;96550.06;;;-8.15;100.00
34297;BME280;20564;42.902;25.336;2024-01-15T04:19:45;96550.78;;;-8.10;99.23
34297;BME280;20564;42.902;25.336;2024-01-15T04:22:12;96547.34;;;-8.09;99.82
34297;BME280;20564;42.902;25.336;2024-01-15T04:24:39;96551.84;;;-8.17;99.47
34297;BME280;20564;42.902;25.336;2024-01-15T04:27:07;96546.00;;;-8.21;100.00
34297;BME280;20564;42.902;25.336;2024-01-15T04:29:34;96539.16;;;-8.20;100.00
34297;BME280;20564;42.902;25.336;2024-01-15T04:32:05;96548.53;;;-8.21;100.00
34297;BME280;20564;42.902;25.336;2024-01-15T04:34:32;96539.84;;;-8.14;100.00
34297;BME280;20564;42.902;25.336;2024-01-15T04:37:00;96533.22;;;-8.21;99.19
34297;BME280;20564;42.902;25.336;2024-01-15T04:39:27;96533.16;;;-8.18;99.80
34297;BME280;20564;42.902;25.336;2024-01-15T04:41:54;96534.81;;;-8.17;100.00
34297;BME280;20564;42.902;25.336;2024-01-15T04:44:22;96531.38;;;-8.16;99.89
34297;BME280;20564;42.902;25.336;2024-01-15T04:46:49;96534.81;;;-8.17;100.00
34297;BME280;20564;42.902;25.336;2024-01-15T04:49:16;96535.84;;;-8.22;100.00
34297;BME280;20564;42.902;25.336;2024-01-15T04:51:44;96529.03;;;-8.23;100.00
34297;BME280;20564;42.902;25.336;2024-01-15T04:54:12;96517.25;;;-8.28;100.00
34297;BME280;20564;42.902;25.336;2024-01-15T04:56:44;96518.91;;;-8.27;100.00
34297;BME280;20564;42.902;25.336;2024-01-15T04:59:13;96524.00;;;-8.27;99.72
34297;BME280;20564;42.902;25.336;2024-01-15T05:01:41;96532.56;;;-8.28;99.81
34297;BME280;20564;42.902;25.336;2024-01-15T05:04:08;96523.94;;;-8.23;100.00
34297;BME280;20564;42.902;25.336;2024-01-15T05:06:36;96528.19;;;-8.24;100.00
34297;BME280;20564;42.902;25.336;2024-01-15T05:09:03;96521.44;;;-8.25;100.00
34297;BME280;20564;42.902;25.336;2024-01-15T05:11:31;96533.38;;;-8.27;99.99
34297;BME280;20564;42.902;25.336;2024-01-15T05:13:58;96531.63;;;-8.25;100.00
34297;BME280;20564;42.902;25.336;2024-01-15T05:16:25;96523.09;;;-8.24;99.34
34297;BME280;20564;42.902;25.336;2024-01-15T05:18:55;96516.16;;;-8.19;100.00
34297;BME280;20564;42.902;25.336;2024-01-15T05:21:23;96521.50;;;-8.28;99.11
34297;BME280;20564;42.902;25.336;2024-01-15T05:23:50;96516.41;;;-8.28;100.00
34297;BME280;20564;42.902;25.336;2024-01-15T05:26:17;96516.41;;;-8.28;99.87
34297;BME280;20564;42.902;25.336;2024-01-15T05:28:44;96511.31;;;-8.28;100.00
34297;BME280;20564;42.902;25.336;2024-01-15T05:31:11;96507.84;;;-8.27;100.00
34297;BME280;20564;42.902;25.336;2024-01-15T05:33:38;96506.03;;;-8.22;100.00
34297;BME280;20564;42.902;25.336;2024-01-15T05:36:06;96500.94;;;-8.22;100.00
34297;BME280;20564;42.902;25.336;2024-01-15T05:38:36;96492.28;;;-8.18;100.00
34297;BME280;20564;42.902;25.336;2024-01-15T05:41:04;96481.28;;;-8.20;100.00
34297;BME280;20564;42.902;25.336;2024-01-15T05:43:31;96470.09;;;-8.16;100.00
34297;BME280;20564;42.902;25.336;2024-01-15T05:45:58;96466.63;;;-8.13;100.00
34297;BME280;20564;42.902;25.336;2024-01-15T05:48:25;96480.06;;;-8.07;100.00
34297;BME280;20564;42.902;25.336;2024-01-15T05:50:52;96471.41;;;-8.03;100.00
34297;BME280;20564;42.902;25.336;2024-01-15T05:53:20;96469.56;;;-7.97;100.00
34297;BME280;20564;42.902;25.336;2024-01-15T05:55:47;96472.16;;;-7.99;100.00
34297;BME280;20564;42.902;25.336;2024-01-15T05:58:14;96470.50;;;-8.00;100.00
34297;BME280;20564;42.902;25.336;2024-01-15T06:00:41;96479.88;;;-8.01;100.00
34297;BME280;20564;42.902;25.336;2024-01-15T06:03:09;96478.03;;;-7.95;100.00
34297;BME280;20564;42.902;25.336;2024-01-15T06:05:36;96471.94;;;-7.91;100.00
34297;BME280;20564;42.902;25.336;2024-01-15T06:08:03;96474.31;;;-7.85;100.00
34297;BME280;20564;42.902;25.336;2024-01-15T06:10:30;96468.41;;;-7.87;100.00
34297;BME280;20564;42.902;25.336;2024-01-15T06:12:57;96467.34;;;-7.80;100.00
34297;BME280;20564;42.902;25.336;2024-01-15T06:15:24;96462.81;;;-7.72;100.00
34297;BME280;20564;42.902;25.336;2024-01-15T06:17:51;96466.84;;;-7.65;100.00
34297;BME280;20564;42.902;25.336;2024-01-15T06:20:18;96462.50;;;-7.61;100.00
34297;BME280;20564;42.902;25.336;2024-01-15T06:22:45;96459.81;;;-7.57;100.00
34297;BME280;20564;42.902;25.336;2024-01-15T06:25:11;96453.72;;;-7.53;100.00
34297;BME280;20564;42.902;25.336;2024-01-15T06:27:38;96454.22;;;-7.41;100.00
34297;BME280;20564;42.902;25.336;2024-01-15T06:30:06;96457.34;;;-7.33;100.00
34297;BME280;20564;42.902;25.336;2024-01-15T06:32:33;96443.16;;;-7.17;100.00
34297;BME280;20564;42.902;25.336;2024-01-15T06:35:00;96449.13;;;-7.16;100.00
34297;BME280;20564;42.902;25.336;2024-01-15T06:37:28;96443.78;;;-7.10;100.00
34297;BME280;20564;42.902;25.336;2024-01-15T06:39:56;96444.41;;;-7.04;100.00
34297;BME280;20564;42.902;25.336;2024-01-15T06:42:25;96445.78;;;-6.93;100.00
34297;BME280;20564;42.902;25.336;2024-01-15T06:44:52;96455.56;;;-6.80;100.00
34297;BME280;20564;42.902;25.336;2024-01-15T06:47:19;96445.03;;;-6.72;100.00
34297;BME280;20564;42.902;25.336;2024-01-15T06:49:46;96448.28;;;-6.67;100.00
34297;BME280;20564;42.902;25.336;2024-01-15T06:52:13;96450.56;;;-6.59;100.00
34297;BME280;20564;42.902;25.336;2024-01-15T06:54:39;96456.28;;;-6.52;100.00
34297;BME280;20564;42.902;25.336;2024-01-15T06:57:09;96456.09;;;-6.46;100.00
34297;BME280;20564;42.902;25.336;2024-01-15T06:59:36;96453.97;;;-6.35;100.00
34297;BME280;20564;42.902;25.336;2024-01-15T07:02:03;96446.72;;;-6.24;100.00
34297;BME280;20564;42.902;25.336;2024-01-15T07:04:31;96446.50;;;-6.18;100.00
34297;BME280;20564;42.902;25.336;2024-01-15T07:06:57;96443.78;;;-6.13;100.00
34297;BME280;20564;42.902;25.336;2024-01-15T07:09:24;96438.13;;;-5.99;100.00
34297;BME280;20564;42.902;25.336;2024-01-15T07:11:51;96438.56;;;-5.90;100.00
34297;BME280;20564;42.902;25.336;2024-01-15T07:14:18;96439.97;;;-5.81;100.00
34297;BME280;20564;42.902;25.336;2024-01-15T07:16:45;96426.53;;;-5.66;100.00
34297;BME280;20564;42.902;25.336;2024-01-15T07:19:14;96435.53;;;-5.55;100.00
34297;BME280;20564;42.902;25.336;2024-01-15T07:21:41;96430.66;;;-5.41;100.00
34297;BME280;20564;42.902;25.336;2024-01-15T07:24:10;96433.47;;;-5.25;100.00
34297;BME280;20564;42.902;25.336;2024-01-15T07:26:37;96439.03;;;-5.16;100.00
34297;BME280;20564;42.902;25.336;2024-01-15T07:29:04;96431.59;;;-5.01;100.00
34297;BME280;20564;42.902;25.336;2024-01-15T07:31:31;96439.44;;;-4.84;100.00
34297;BME280;20564;42.902;25.336;2024-01-15T07:33:59;96435.31;;;-4.68;100.00
34297;BME280;20564;42.902;25.336;2024-01-15T07:36:27;96434.78;;;-4.55;100.00
34297;BME280;20564;42.902;25.336;2024-01-15T07:38:54;96418.13;;;-4.28;100.00
34297;BME280;20564;42.902;25.336;2024-01-15T07:41:21;96414.13;;;-4.15;100.00
34297;BME280;20564;42.902;25.336;2024-01-15T07:43:48;96418.16;;;-3.90;100.00
34297;BME280;20564;42.902;25.336;2024-01-15T07:46:15;96408.53;;;-3.68;100.00
34297;BME280;20564;42.902;25.336;2024-01-15T07:48:41;96397.06;;;-3.43;100.00
34297;BME280;20564;42.902;25.336;2024-01-15T07:51:08;96397.97;;;-3.09;100.00
34297;BME280;20564;42.902;25.336;2024-01-15T07:53:36;96400.06;;;-2.83;100.00
34297;BME280;20564;42.902;25.336;2024-01-15T07:56:03;96405.88;;;-2.46;100.00
34297;BME280;20564;42.902;25.336;2024-01-15T07:58:30;96393.31;;;-2.03;100.00
34297;BME280;20564;42.902;25.336;2024-01-15T08:00:57;96397.16;;;-1.79;100.00
34297;BME280;20564;42.902;25.336;2024-01-15T08:03:25;96392.59;;;-1.43;100.00
34297;BME280;20564;42.902;25.336;2024-01-15T08:05:52;96384.66;;;-1.10;100.00
34297;BME280;20564;42.902;25.336;2024-01-15T08:08:21;96388.41;;;-0.86;100.00
34297;BME280;20564;42.902;25.336;2024-01-15T08:10:48;96390.38;;;-0.46;100.00
34297;BME280;20564;42.902;25.336;2024-01-15T08:13:15;96391.19;;;-0.17;100.00
34297;BME280;20564;42.902;25.336;2024-01-15T08:15:42;96389.28;;;0.13;100.00
34297;BME280;20564;42.902;25.336;2024-01-15T08:18:09;96374.31;;;0.45;100.00
34297;BME280;20564;42.902;25.336;2024-01-15T08:20:36;96370.03;;;0.71;97.85
34297;BME280;20564;42.902;25.336;2024-01-15T08:23:04;96371.53;;;1.01;95.33
34297;BME280;20564;42.902;25.336;2024-01-15T08:25:31;96363.38;;;1.20;93.72
34297;BME280;20564;42.902;25.336;2024-01-15T08:27:58;96360.34;;;1.39;91.49
34297;BME280;20564;42.902;25.336;2024-01-15T08:30:25;96359.84;;;1.59;91.31
34297;BME280;20564;42.902;25.336;2024-01-15T08:32:55;96373.63;;;1.73;91.41
34297;BME280;20564;42.902;25.336;2024-01-15T08:35:25;96375.25;;;1.86;88.95
34297;BME280;20564;42.902;25.336;2024-01-15T08:37:52;96368.78;;;2.05;87.14
34297;BME280;20564;42.902;25.336;2024-01-15T08:40:19;96369.25;;;2.23;82.90
34297;BME280;20564;42.902;25.336;2024-01-15T08:42:46;96373.38;;;2.38;84.35
34297;BME280;20564;42.902;25.336;2024-01-15T08:45:13;96368.84;;;2.53;83.52
34297;BME280;20564;42.902;25.336;2024-01-15T08:47:40;96363.50;;;2.78;80.90
34297;BME280;20564;42.902;25.336;2024-01-15T08:50:07;96353.03;;;2.91;79.47
34297;BME280;20564;42.902;25.336;2024-01-15T08:52:37;96349.78;;;3.11;79.02
34297;BME280;20564;42.902;25.336;2024-01-15T08:55:04;96351.69;;;3.32;78.13
34297;BME280;20564;42.902;25.336;2024-01-15T08:57:31;96350.06;;;3.53;77.62
34297;BME280;20564;42.902;25.336;2024-01-15T09:00:01;96345.09;;;3.73;77.30
34297;BME280;20564;42.902;25.336;2024-01-15T09:02:27;96339.38;;;4.01;74.80
34297;BME280;20564;42.902;25.336;2024-01-15T09:04:55;96329.41;;;4.29;72.72
34297;BME280;20564;42.902;25.336;2024-01-15T09:07:22;96321.03;;;4.57;72.61
34297;BME280;20564;42.902;25.336;2024-01-15T09:09:49;96314.56;;;4.73;72.67
34297;BME280;20564;42.902;25.336;2024-01-15T09:12:16;96324.22;;;4.82;72.78
34297;BME280;20564;42.902;25.336;2024-01-15T09:14:45;96308.31;;;4.85;73.48
34297;BME280;20564;42.902;25.336;2024-01-15T09:17:12;96307.56;;;4.94;72.48
34297;BME280;20564;42.902;25.336;2024-01-15T09:19:39;96305.41;;;4.99;72.32
34297;BME280;20564;42.902;25.336;2024-01-15T09:22:06;96297.50;;;5.11;71.55
34297;BME280;20564;42.902;25.336;2024-01-15T09:24:33;96293.59;;;5.26;69.99
34297;BME280;20564;42.902;25.336;2024-01-15T09:27:00;96283.47;;;5.32;72.14
34297;BME280;20564;42.902;25.336;2024-01-15T09:29:27;96274.75;;;5.43;70.62
34297;BME280;20564;42.902;25.336;2024-01-15T09:31:54;96278.47;;;5.50;70.69
34297;BME280;20564;42.902;25.336;2024-01-15T09:34:21;96257.59;;;5.50;73.01
34297;BME280;20564;42.902;25.336;2024-01-15T09:36:49;96255.47;;;5.65;65.65
34297;BME280;20564;42.902;25.336;2024-01-15T09:39:16;96251.66;;;5.79;64.48
34297;BME280;20564;42.902;25.336;2024-01-15T09:41:43;96235.06;;;5.99;61.26
34297;BME280;20564;42.902;25.336;2024-01-15T09:44:10;96235.25;;;6.08;59.77
34297;BME280;20564;42.902;25.336;2024-01-15T09:46:39;96228.13;;;6.29;57.09
34297;BME280;20564;42.902;25.336;2024-01-15T09:49:09;96222.06;;;6.38;56.01
34297;BME280;20564;42.902;25.336;2024-01-15T09:51:37;96213.41;;;6.47;55.99
34297;BME280;20564;42.902;25.336;2024-01-15T09:54:09;96205.94;;;6.62;53.64
34297;BME280;20564;42.902;25.336;2024-01-15T09:56:36;96197.78;;;6.75;53.15
34297;BME280;20564;42.902;25.336;2024-01-15T09:59:03;96190.84;;;6.93;51.29
34297;BME280;20564;42.902;25.336;2024-01-15T10:01:36;96182.91;;;6.85;50.78
34297;BME280;20564;42.902;25.336;2024-01-15T10:04:03;96174.50;;;6.91;51.02
34297;BME280;20564;42.902;25.336;2024-01-15T10:06:30;96161.41;;;6.91;50.90
34297;BME280;20564;42.902;25.336;2024-01-15T10:08:58;96164.97;;;6.90;51.68
34297;BME280;20564;42.902;25.336;2024-01-15T10:11:30;96151.25;;;6.88;49.71
34297;BME280;20564;42.902;25.336;2024-01-15T10:13:57;96151.63;;;6.93;50.35
34297;BME280;20564;42.902;25.336;2024-01-15T10:16:25;96149.00;;;6.93;50.10
34297;BME280;20564;42.902;25.336;2024-01-15T10:18:52;96138.25;;;6.96;49.38
34297;BME280;20564;42.902;25.336;2024-01-15T10:21:20;96134.81;;;6.96;48.54
34297;BME280;20564;42.902;25.336;2024-01-15T10:23:47;96122.28;;;6.99;48.92
34297;BME280;20564;42.902;25.336;2024-01-15T10:26:14;96109.56;;;7.05;48.03
34297;BME280;20564;42.902;25.336;2024-01-15T10:28:44;96110.13;;;7.08;46.97
34297;BME280;20564;42.902;25.336;2024-01-15T10:31:12;96115.31;;;7.18;47.75
34297;BME280;20564;42.902;25.336;2024-01-15T10:33:38;96110.31;;;7.24;46.95
34297;BME280;20564;42.902;25.336;2024-01-15T10:36:09;96106.56;;;7.27;47.35
34297;BME280;20564;42.902;25.336;2024-01-15T10:38:36;96102.31;;;7.26;47.49
34297;BME280;20564;42.902;25.336;2024-01-15T10:41:03;96097.38;;;7.23;46.56
34297;BME280;20564;42.902;25.336;2024-01-15T10:43:31;96097.91;;;7.27;47.24
34297;BME280;20564;42.902;25.336;2024-01-15T10:45:58;96090.97;;;7.35;47.67
34297;BME280;20564;42.902;25.336;2024-01-15T10:48:26;96093.38;;;7.46;47.78
34297;BME280;20564;42.902;25.336;2024-01-15T10:50:55;96083.34;;;7.60;46.92
34297;BME280;20564;42.902;25.336;2024-01-15T10:53:23;96074.75;;;7.67;47.06
34297;BME280;20564;42.902;25.336;2024-01-15T10:55:52;96067.81;;;7.76;47.27
34297;BME280;20564;42.902;25.336;2024-01-15T10:58:20;96067.72;;;7.86;46.15
34297;BME280;20564;42.902;25.336;2024-01-15T11:00:47;96059.72;;;7.87;47.01
34297;BME280;20564;42.902;25.336;2024-01-15T11:03:14;96054.25;;;7.81;45.61
34297;BME280;20564;42.902;25.336;2024-01-15T11:05:43;96050.94;;;7.79;45.73
34297;BME280;20564;42.902;25.336;2024-01-15T11:08:11;96044.28;;;7.84;44.47
34297;BME280;20564;42.902;25.336;2024-01-15T11:10:42;96042.41;;;7.94;44.12
34297;BME280;20564;42.902;25.336;2024-01-15T11:13:20;96032.91;;;7.93;44.71
34297;BME280;20564;42.902;25.336;2024-01-15T11:15:56;96028.78;;;7.91;44.94
34297;BME280;20564;42.902;25.336;2024-01-15T11:18:26;96032.06;;;7.93;45.52
34297;BME280;20564;42.902;25.336;2024-01-15T11:21:19;96029.66;;;8.00;44.74
34297;BME280;20564;42.902;25.336;2024-01-15T11:23:55;96023.44;;;8.01;44.89
34297;BME280;20564;42.902;25.336;2024-01-15T11:26:44;96019.25;;;8.08;45.01
34297;BME280;20564;42.902;25.336;2024-01-15T11:32:09;96013.28;;;7.97;44.52
34297;BME280;20564;42.902;25.336;2024-01-15T11:34:59;96018.28;;;8.09;44.30
34297;BME280;20564;42.902;25.336;2024-01-15T11:43:02;95984.59;;;8.22;44.54
34297;BME280;20564;42.902;25.336;2024-01-15T11:45:30;95988.72;;;8.25;44.92
34297;BME280;20564;42.902;25.336;2024-01-15T11:48:15;95973.81;;;8.51;43.50
34297;BME280;20564;42.902;25.336;2024-01-15T11:50:48;95969.88;;;8.55;44.73
34297;BME280;20564;42.902;25.336;2024-01-15T11:53:18;95972.41;;;8.65;43.13
34297;BME280;20564;42.902;25.336;2024-01-15T11:55:51;95966.84;;;8.68;43.70
34297;BME280;20564;42.902;25.336;2024-01-15T11:58:18;95962.59;;;8.67;43.64
34297;BME280;20564;42.902;25.336;2024-01-15T12:00:48;95959.16;;;8.75;42.44
34297;BME280;20564;42.902;25.336;2024-01-15T12:03:21;95961.28;;;8.79;43.35
34297;BME280;20564;42.902;25.336;2024-01-15T12:05:49;95958.97;;;8.68;43.17
34297;BME280;20564;42.902;25.336;2024-01-15T12:08:22;95967.31;;;8.63;44.31
34297;BME280;20564;42.902;25.336;2024-01-15T12:10:49;95967.44;;;8.54;42.87
34297;BME280;20564;42.902;25.336;2024-01-15T12:13:16;95963.63;;;8.48;43.30
34297;BME280;20564;42.902;25.336;2024-01-15T12:15:46;95954.28;;;8.45;43.59
34297;BME280;20564;42.902;25.336;2024-01-15T12:18:14;95957.25;;;8.51;43.99
34297;BME280;20564;42.902;25.336;2024-01-15T12:20:43;95956.16;;;8.61;43.79
34297;BME280;20564;42.902;25.336;2024-01-15T12:23:10;95957.03;;;8.78;43.97
34297;BME280;20564;42.902;25.336;2024-01-15T12:25:39;95953.75;;;8.84;43.92
34297;BME280;20564;42.902;25.336;2024-01-15T12:28:06;95954.44;;;8.86;44.03
34297;BME280;20564;42.902;25.336;2024-01-15T12:30:34;95957.88;;;8.87;43.58
34297;BME280;20564;42.902;25.336;2024-01-15T12:33:04;95966.94;;;8.92;43.79
34297;BME280;20564;42.902;25.336;2024-01-15T12:35:36;95960.38;;;8.97;43.86
34297;BME280;20564;42.902;25.336;2024-01-15T12:38:03;95952.81;;;8.85;44.37
34297;BME280;20564;42.902;25.336;2024-01-15T12:40:32;95956.06;;;8.79;44.54
34297;BME280;20564;42.902;25.336;2024-01-15T12:43:00;95962.72;;;8.65;44.42
34297;BME280;20564;42.902;25.336;2024-01-15T12:45:27;95956.31;;;8.60;43.67
34297;BME280;20564;42.902;25.336;2024-01-15T12:47:54;95955.31;;;8.53;45.53
34297;BME280;20564;42.902;25.336;2024-01-15T12:50:25;95949.03;;;8.37;46.04
34297;BME280;20564;42.902;25.336;2024-01-15T12:52:53;95947.72;;;8.41;44.09
34297;BME280;20564;42.902;25.336;2024-01-15T12:55:20;95954.03;;;8.31;45.00
34297;BME280;20564;42.902;25.336;2024-01-15T12:57:47;95949.22;;;8.26;45.13
34297;BME280;20564;42.902;25.336;2024-01-15T13:00:14;95944.34;;;8.23;45.14
34297;BME280;20564;42.902;25.336;2024-01-15T13:02:42;95953.94;;;8.14;44.75